QUAO2: Spring River Near Quapaw, OK

                                SHEF ID:       QUAO2     Spring River near Quapaw, OK
STATION TYPE:
Regulating: Stage = 20.00, Flow = 33834

PRECIP STAGE STAGE(2) RIV-FLOW BAT-LOAD
in ft ft cfs volt
Ccp-Rev Ccp-Rev Ccp-Rev Ccp-Rev Ccp-Rev
(America/Chicago)
04/25 00:00 0.00 9.03 9.04 4754 12.48
04/25 01:00 0.00 8.99 9.02 4681 12.46
04/25 02:00 0.00 8.98 9.01 4663 12.44
04/25 03:00 0.00 8.94 8.99 4592 12.41
04/25 04:00 0.00 8.95 8.96 4610 12.38
04/25 05:00 0.00 8.92 8.95 4556 12.36
04/25 06:00 0.00 8.92 8.93 4556 12.35
04/25 07:00 0.00 8.89 8.92 4503 12.34
04/25 08:00 0.00 8.88 8.90 4485 12.37
04/25 09:00 0.00 8.90 8.89 4521 12.59
04/25 10:00 0.00 8.88 8.88 4485 12.97
04/25 11:00 0.00 8.87 8.88 4468 13.06
04/25 12:00 0.00 8.86 8.86 4450 13.65
04/25 13:00 0.00 8.83 8.84 4398 13.45
04/25 14:00 0.00 8.84 8.84 4415 13.06
04/25 15:00 0.00 8.81 8.81 4363 12.91
04/25 16:00 0.00 8.79 8.79 4328 12.93
04/25 17:00 0.00 8.76 8.76 4277 12.83
04/25 18:00 0.00 8.73 8.74 4225 12.62
04/25 19:00 0.00 8.70 8.72 4174 12.53
04/25 20:00 0.03 8.69 8.70 4157 12.53
04/25 21:00 0.00 8.68 8.67 4141 12.50
04/25 22:00 0.03 8.64 8.64 4071 12.49
04/25 23:00 0.00 8.59 8.62 3984 12.46
Data processed at Sun 26Apr2026 04:21 GMT

NOTICE: If you are parsing this page

Please convert to using our Data API. Starting early 2026 we will be migrating to: https://water.usace.army.mil with modern pages rendered in JavaScript. When this migration completes you will no longer be able to scrape this page! CWMSDataAPI (CDA)

Timeseries IDs (TSIDs)

TSIDs used from left to right in the data table
QUAP.Precip-Inc.Total.1Hour.1Hour.Ccp-Rev
QUAP.Stage.Inst.1Hour.0.Ccp-Rev
QUAP.Stage-Alt.Inst.1Hour.0.Ccp-Rev
QUAP.Flow.Inst.1Hour.0.Ccp-Rev
QUAP.Volt-Battery Load.Inst.1Hour.0.Ccp-Rev

                            

All information presented herein is the property of the government of the United States of America and may be revised or deleted at any time without prior notice. Dissemination of this information without the expressed written consent of the Public Affairs Office, Tulsa District U.S. Army Corps of Engineers is strictly prohibited. These data are gathered electronically and, as presented, have NOT undergone any form of quality control. These data are NOT guaranteed to be valid or correct.